Aviation Digital Data Service (ADDS)

Output produced by METARs form (1423 UTC 21 August 2019)
found at http://www.aviationweather.gov/metar/data/
 
METAR text: FZNA 211200Z 16004KT 8000 BKN021 29/22 Q1014 NOSIG
Conditions at: FZNA (GOMA INTL AIRPOR, CD) observed 1200 UTC 21 August 2019
Temperature: 29.0°C (84°F)
Dewpoint: 22.0°C (72°F) [RH = 66%]
Pressure (altimeter): 29.94 inches Hg (1014.0 mb)
Winds: from the SSE (160 degrees) at 5 MPH (4 knots; 2.1 m/s)
Visibility: 5 miles ( 8 km)
Ceiling: 2100 feet AGL
Clouds: broken clouds at 2100 feet AGL
Weather: no significant weather observed at this time

METAR text: FZNA 211100Z 27006KT 6000 SCT016 FEW018CB BKN110 23/13 Q1022 NOSIG
Conditions at: FZNA (GOMA INTL AIRPOR, CD) observed 1100 UTC 21 August 2019
Temperature: 23.0°C (73°F)
Dewpoint: 13.0°C (55°F) [RH = 53%]
Pressure (altimeter): 30.18 inches Hg (1022.0 mb)
Winds: from the W (270 degrees) at 7 MPH (6 knots; 3.1 m/s)
Visibility: 4 miles ( 6 km)
Ceiling: 11000 feet AGL
Clouds: scattered clouds at 1600 feet AGL
few clouds at 1800 feet AGL
broken clouds at 11000 feet AGL
Weather: no significant weather observed at this time

METAR text: FZNA 210900Z 18008KT 5000 HZ SCT016 FEW018CB BKN120 24/15 Q1023 NOSIG
Conditions at: FZNA (GOMA INTL AIRPOR, CD) observed 0900 UTC 21 August 2019
Temperature: 24.0°C (75°F)
Dewpoint: 15.0°C (59°F) [RH = 57%]
Pressure (altimeter): 30.21 inches Hg (1023.0 mb)
Winds: from the S (180 degrees) at 9 MPH (8 knots; 4.1 m/s)
Visibility: 3 miles ( 5 km)
Ceiling: 12000 feet AGL
Clouds: scattered clouds at 1600 feet AGL
few clouds at 1800 feet AGL
broken clouds at 12000 feet AGL
Weather: HZ  (haze)

METAR text: FZNA 210800Z 26010KT 5000 HZ SCT016 BKN120 24/15 Q1023 NOSIG
Conditions at: FZNA (GOMA INTL AIRPOR, CD) observed 0800 UTC 21 August 2019
Temperature: 24.0°C (75°F)
Dewpoint: 15.0°C (59°F) [RH = 57%]
Pressure (altimeter): 30.21 inches Hg (1023.0 mb)
Winds: from the W (260 degrees) at 12 MPH (10 knots; 5.1 m/s)
Visibility: 3 miles ( 5 km)
Ceiling: 12000 feet AGL
Clouds: scattered clouds at 1600 feet AGL
broken clouds at 12000 feet AGL
Weather: HZ  (haze)

METAR text: FZNA 210700Z 18006KT 5000 HZ SCT016 BKN110 23/15 Q1023 NOSIG
Conditions at: FZNA (GOMA INTL AIRPOR, CD) observed 0700 UTC 21 August 2019
Temperature: 23.0°C (73°F)
Dewpoint: 15.0°C (59°F) [RH = 61%]
Pressure (altimeter): 30.21 inches Hg (1023.0 mb)
Winds: from the S (180 degrees) at 7 MPH (6 knots; 3.1 m/s)
Visibility: 3 miles ( 5 km)
Ceiling: 11000 feet AGL
Clouds: scattered clouds at 1600 feet AGL
broken clouds at 11000 feet AGL
Weather: HZ  (haze)

METAR text: FZNA 210600Z 09006KT 4000 BR SCT014 BKN110 19/13 Q1023 NOSIG
Conditions at: FZNA (GOMA INTL AIRPOR, CD) observed 0600 UTC 21 August 2019
Temperature: 19.0°C (66°F)
Dewpoint: 13.0°C (55°F) [RH = 68%]
Pressure (altimeter): 30.21 inches Hg (1023.0 mb)
Winds: from the E (90 degrees) at 7 MPH (6 knots; 3.1 m/s)
Visibility: 2.49 miles (4.01 km)
Ceiling: 11000 feet AGL
Clouds: scattered clouds at 1400 feet AGL
broken clouds at 11000 feet AGL
Weather: BR  (mist)

METAR text: FZNA 201500Z 36004KT 5000 HZ SCT018 FEW020CB BKN100 24/11 Q1018 NOSIG
Conditions at: FZNA (GOMA INTL AIRPOR, CD) observed 1500 UTC 20 August 2019
Temperature: 24.0°C (75°F)
Dewpoint: 11.0°C (52°F) [RH = 44%]
Pressure (altimeter): 30.06 inches Hg (1018.0 mb)
Winds: from the N (360 degrees) at 5 MPH (4 knots; 2.1 m/s)
Visibility: 3 miles ( 5 km)
Ceiling: 10000 feet AGL
Clouds: scattered clouds at 1800 feet AGL
few clouds at 2000 feet AGL
broken clouds at 10000 feet AGL
Weather: HZ  (haze)

METAR text: FZNA 201400Z 26004KT 5000 HZ SCT018 FEW020CB BKN100 25/12 Q1018 NOSIG
Conditions at: FZNA (GOMA INTL AIRPOR, CD) observed 1400 UTC 20 August 2019
Temperature: 25.0°C (77°F)
Dewpoint: 12.0°C (54°F) [RH = 44%]
Pressure (altimeter): 30.06 inches Hg (1018.0 mb)
Winds: from the W (260 degrees) at 5 MPH (4 knots; 2.1 m/s)
Visibility: 3 miles ( 5 km)
Ceiling: 10000 feet AGL
Clouds: scattered clouds at 1800 feet AGL
few clouds at 2000 feet AGL
broken clouds at 10000 feet AGL
Weather: HZ  (haze)

METAR text: FZNA 201300Z 27008KT 4000 HZ SCT018 FEW020CB BKN100 26/14 Q1018 NOSIG
Conditions at: FZNA (GOMA INTL AIRPOR, CD) observed 1300 UTC 20 August 2019
Temperature: 26.0°C (79°F)
Dewpoint: 14.0°C (57°F) [RH = 48%]
Pressure (altimeter): 30.06 inches Hg (1018.0 mb)
Winds: from the W (270 degrees) at 9 MPH (8 knots; 4.1 m/s)
Visibility: 2.49 miles (4.01 km)
Ceiling: 10000 feet AGL
Clouds: scattered clouds at 1800 feet AGL
few clouds at 2000 feet AGL
broken clouds at 10000 feet AGL
Weather: HZ  (haze)

METAR text: FZNA 201200Z 36008KT 4000 HZ SCT018 FEW020CB BKN100 25/13 Q1019 NOSIG
Conditions at: FZNA (GOMA INTL AIRPOR, CD) observed 1200 UTC 20 August 2019
Temperature: 25.0°C (77°F)
Dewpoint: 13.0°C (55°F) [RH = 47%]
Pressure (altimeter): 30.09 inches Hg (1019.0 mb)
Winds: from the N (360 degrees) at 9 MPH (8 knots; 4.1 m/s)
Visibility: 2.49 miles (4.01 km)
Ceiling: 10000 feet AGL
Clouds: scattered clouds at 1800 feet AGL
few clouds at 2000 feet AGL
broken clouds at 10000 feet AGL
Weather: HZ  (haze)

METAR text: FZNA 201100Z 20008KT 5000 HZ SCT020 FEW021CB BKN100 24/13 Q1020 NOSIG
Conditions at: FZNA (GOMA INTL AIRPOR, CD) observed 1100 UTC 20 August 2019
Temperature: 24.0°C (75°F)
Dewpoint: 13.0°C (55°F) [RH = 50%]
Pressure (altimeter): 30.12 inches Hg (1020.0 mb)
Winds: from the SSW (200 degrees) at 9 MPH (8 knots; 4.1 m/s)
Visibility: 3 miles ( 5 km)
Ceiling: 10000 feet AGL
Clouds: scattered clouds at 2000 feet AGL
few clouds at 2100 feet AGL
broken clouds at 10000 feet AGL
Weather: HZ  (haze)

METAR text: FZNA 201000Z 18012KT 5000 HZ FEW020 FEW021CB BKN300 25/13 Q1021 NOSIG
Conditions at: FZNA (GOMA INTL AIRPOR, CD) observed 1000 UTC 20 August 2019
Temperature: 25.0°C (77°F)
Dewpoint: 13.0°C (55°F) [RH = 47%]
Pressure (altimeter): 30.15 inches Hg (1021.0 mb)
Winds: from the S (180 degrees) at 14 MPH (12 knots; 6.2 m/s)
Visibility: 3 miles ( 5 km)
Ceiling: 30000 feet AGL
Clouds: few clouds at 2000 feet AGL
few clouds at 2100 feet AGL
broken clouds at 30000 feet AGL
Weather: HZ  (haze)

METAR text: FZNA 200900Z 18012KT 5000 HZ FEW018 FEW020CB 25/15 Q1021 NOSIG
Conditions at: FZNA (GOMA INTL AIRPOR, CD) observed 0900 UTC 20 August 2019
Temperature: 25.0°C (77°F)
Dewpoint: 15.0°C (59°F) [RH = 54%]
Pressure (altimeter): 30.15 inches Hg (1021.0 mb)
Winds: from the S (180 degrees) at 14 MPH (12 knots; 6.2 m/s)
Visibility: 3 miles ( 5 km)
Ceiling: at least 12,000 feet AGL
Clouds: few clouds at 1800 feet AGL
few clouds at 2000 feet AGL
Weather: HZ  (haze)

METAR text: FZNA 200700Z 18008KT 4000 HZ FEW018 23/15 Q1022 NOSIG
Conditions at: FZNA (GOMA INTL AIRPOR, CD) observed 0700 UTC 20 August 2019
Temperature: 23.0°C (73°F)
Dewpoint: 15.0°C (59°F) [RH = 61%]
Pressure (altimeter): 30.18 inches Hg (1022.0 mb)
Winds: from the S (180 degrees) at 9 MPH (8 knots; 4.1 m/s)
Visibility: 2.49 miles (4.01 km)
Ceiling: at least 12,000 feet AGL
Clouds: few clouds at 1800 feet AGL
Weather: HZ  (haze)

METAR text: FZNA 200500Z 05008KT 4000 BR SCT016 16/10 Q1021 NOSIG
Conditions at: FZNA (GOMA INTL AIRPOR, CD) observed 0500 UTC 20 August 2019
Temperature: 16.0°C (61°F)
Dewpoint: 10.0°C (50°F) [RH = 68%]
Pressure (altimeter): 30.15 inches Hg (1021.0 mb)
Winds: from the NE (50 degrees) at 9 MPH (8 knots; 4.1 m/s)
Visibility: 2.49 miles (4.01 km)
Ceiling: at least 12,000 feet AGL
Clouds: scattered clouds at 1600 feet AGL
Weather: BR  (mist)

Forecast for: FZNA (GOMA INTL AIRPOR, CD)
Text: TAF FZNA 211100Z 2112/2218 23008KT 6000 SCT020 FEW024CB
Forecast period: 1200 to 1500 UTC 21 August 2019
Forecast type: FROM: standard forecast or significant change
Winds: from the SW (230 degrees) at 9 MPH (8 knots; 4.1 m/s)
Visibility: 4 miles (6 km)
Ceiling: at least 12,000 feet AGL
Clouds: scattered clouds at 2000 feet AGL
few clouds at 2400 feet AGL
Weather: no significant weather forecast for this period
Text: BECMG 2115/2117 0600KT SCT016
Forecast period: 1500 to 2300 UTC 21 August 2019
Forecast type: BECOMING: Conditions expected to become as follows by 1700 UTC 21 August 2019
Winds: from the SW (230 degrees) at 9 MPH (8 knots; 4.1 m/s)
Visibility: 4 miles (6 km)
Ceiling: at least 12,000 feet AGL
Clouds: scattered clouds at 1600 feet AGL
Weather: no significant weather forecast for this period
Text: BECMG 2123/2201 NSC
Forecast period: 2300 UTC 21 August 2019 to 0400 UTC 22 August 2019
Forecast type: BECOMING: Conditions expected to become as follows by 0100 UTC 22 August 2019
Winds: from the SW (230 degrees) at 9 MPH (8 knots; 4.1 m/s)
Visibility: 4 miles (6 km)
Ceiling: unknown
Clouds: missing
Weather: no significant weather forecast for this period
Text: BECMG 2204/2206 VRB03KT 5000 HZ FEW012
Forecast period: 0400 to 1800 UTC 22 August 2019
Forecast type: BECOMING: Conditions expected to become as follows by 0600 UTC 22 August 2019
Winds: variable direction winds at 3 MPH (3 knots; 1.5 m/s)
Visibility: 3 miles (5 km)
Ceiling: at least 12,000 feet AGL
Clouds: few clouds at 1200 feet AGL
Weather: HZ  (haze)